sensor_id;sensor_type;location;lat;lon;timestamp;pressure;altitude;pressure_sealevel;temperature;humidity
80405;BME280;69733;48.744;9.176;2024-01-30T00:00:34;98134.06;;;1.17;74.81
80405;BME280;69733;48.744;9.176;2024-01-30T00:03:00;98129.00;;;1.16;74.96
80405;BME280;69733;48.744;9.176;2024-01-30T00:05:25;98130.78;;;1.15;75.25
80405;BME280;69733;48.744;9.176;2024-01-30T00:07:50;98128.16;;;1.15;75.18
80405;BME280;69733;48.744;9.176;2024-01-30T00:10:16;98129.13;;;1.14;75.37
80405;BME280;69733;48.744;9.176;2024-01-30T00:12:41;98138.75;;;1.14;75.49
80405;BME280;69733;48.744;9.176;2024-01-30T00:15:06;98126.78;;;1.11;75.34
80405;BME280;69733;48.744;9.176;2024-01-30T00:17:35;98130.34;;;1.10;75.29
80405;BME280;69733;48.744;9.176;2024-01-30T00:20:01;98134.78;;;1.10;75.17
80405;BME280;69733;48.744;9.176;2024-01-30T00:22:26;98134.78;;;1.10;75.57
80405;BME280;69733;48.744;9.176;2024-01-30T00:24:51;98136.56;;;1.09;75.74
80405;BME280;69733;48.744;9.176;2024-01-30T00:27:17;98136.56;;;1.09;75.71
80405;BME280;69733;48.744;9.176;2024-01-30T00:29:42;98132.28;;;1.08;75.25
80405;BME280;69733;48.744;9.176;2024-01-30T00:32:07;98123.47;;;1.09;75.56
80405;BME280;69733;48.744;9.176;2024-01-30T00:34:33;98127.72;;;1.10;75.39
80405;BME280;69733;48.744;9.176;2024-01-30T00:36:58;98129.38;;;1.11;75.67
80405;BME280;69733;48.744;9.176;2024-01-30T00:39:23;98128.28;;;1.14;75.69
80405;BME280;69733;48.744;9.176;2024-01-30T00:41:48;98126.50;;;1.14;75.49
80405;BME280;69733;48.744;9.176;2024-01-30T00:44:14;98128.84;;;1.17;75.54
80405;BME280;69733;48.744;9.176;2024-01-30T00:46:39;98129.66;;;1.18;75.72
80405;BME280;69733;48.744;9.176;2024-01-30T00:49:04;98125.25;;;1.18;75.64
80405;BME280;69733;48.744;9.176;2024-01-30T00:51:30;98129.25;;;1.22;75.61
80405;BME280;69733;48.744;9.176;2024-01-30T00:53:55;98129.94;;;1.24;75.41
80405;BME280;69733;48.744;9.176;2024-01-30T00:56:20;98130.66;;;1.26;75.74
80405;BME280;69733;48.744;9.176;2024-01-30T00:58:46;98134.09;;;1.27;75.71
80405;BME280;69733;48.744;9.176;2024-01-30T01:01:11;98131.31;;;1.28;75.55
80405;BME280;69733;48.744;9.176;2024-01-30T01:03:37;98133.66;;;1.31;75.66
80405;BME280;69733;48.744;9.176;2024-01-30T01:06:02;98131.75;;;1.33;75.82
80405;BME280;69733;48.744;9.176;2024-01-30T01:08:28;98133.28;;;1.36;75.88
80405;BME280;69733;48.744;9.176;2024-01-30T01:10:53;98131.59;;;1.35;76.25
80405;BME280;69733;48.744;9.176;2024-01-30T01:13:18;98134.94;;;1.37;76.14
80405;BME280;69733;48.744;9.176;2024-01-30T01:15:44;98129.81;;;1.35;76.14
80405;BME280;69733;48.744;9.176;2024-01-30T01:18:09;98134.94;;;1.37;76.20
80405;BME280;69733;48.744;9.176;2024-01-30T01:20:34;98137.69;;;1.35;76.25
80405;BME280;69733;48.744;9.176;2024-01-30T01:23:00;98135.88;;;1.36;75.98
80405;BME280;69733;48.744;9.176;2024-01-30T01:25:25;98129.81;;;1.35;76.25
80405;BME280;69733;48.744;9.176;2024-01-30T01:27:50;98127.19;;;1.35;76.23
80405;BME280;69733;48.744;9.176;2024-01-30T01:30:18;98120.31;;;1.34;76.49
80405;BME280;69733;48.744;9.176;2024-01-30T01:32:48;98121.13;;;1.35;76.32
80405;BME280;69733;48.744;9.176;2024-01-30T01:35:20;98123.06;;;1.33;76.69
80405;BME280;69733;48.744;9.176;2024-01-30T01:37:46;98121.56;;;1.30;76.60
80405;BME280;69733;48.744;9.176;2024-01-30T01:40:11;98126.78;;;1.30;76.50
80405;BME280;69733;48.744;9.176;2024-01-30T01:42:36;98126.78;;;1.30;76.56
80405;BME280;69733;48.744;9.176;2024-01-30T01:45:02;98126.09;;;1.28;76.70
80405;BME280;69733;48.744;9.176;2024-01-30T01:47:27;98124.56;;;1.26;76.70
80405;BME280;69733;48.744;9.176;2024-01-30T01:49:53;98129.81;;;1.26;76.94
80405;BME280;69733;48.744;9.176;2024-01-30T01:52:18;98130.94;;;1.23;76.92
80405;BME280;69733;48.744;9.176;2024-01-30T01:54:44;98127.59;;;1.21;76.78
80405;BME280;69733;48.744;9.176;2024-01-30T01:57:09;98121.81;;;1.18;77.27
80405;BME280;69733;48.744;9.176;2024-01-30T01:59:35;98120.28;;;1.15;77.46
80405;BME280;69733;48.744;9.176;2024-01-30T02:02:02;98119.75;;;1.12;77.41
80405;BME280;69733;48.744;9.176;2024-01-30T02:04:27;98123.31;;;1.11;77.33
80405;BME280;69733;48.744;9.176;2024-01-30T02:06:55;98115.59;;;1.09;77.12
80405;BME280;69733;48.744;9.176;2024-01-30T02:09:21;98118.34;;;1.08;77.39
80405;BME280;69733;48.744;9.176;2024-01-30T02:11:46;98120.28;;;1.06;77.35
80405;BME280;69733;48.744;9.176;2024-01-30T02:14:11;98114.34;;;1.04;77.69
80405;BME280;69733;48.744;9.176;2024-01-30T02:16:37;98121.53;;;1.02;77.76
80405;BME280;69733;48.744;9.176;2024-01-30T02:19:02;98124.44;;;0.98;77.58
80405;BME280;69733;48.744;9.176;2024-01-30T02:21:27;98128.13;;;0.96;77.90
80405;BME280;69733;48.744;9.176;2024-01-30T02:23:54;98132.69;;;0.94;77.81
80405;BME280;69733;48.744;9.176;2024-01-30T02:26:20;98129.38;;;0.92;77.97
80405;BME280;69733;48.744;9.176;2024-01-30T02:28:45;98137.47;;;0.89;77.80
80405;BME280;69733;48.744;9.176;2024-01-30T02:31:10;98137.75;;;0.86;77.95
80405;BME280;69733;48.744;9.176;2024-01-30T02:33:36;98137.91;;;0.84;78.06
80405;BME280;69733;48.744;9.176;2024-01-30T02:36:01;98138.03;;;0.83;78.08
80405;BME280;69733;48.744;9.176;2024-01-30T02:38:27;98128.66;;;0.80;78.28
80405;BME280;69733;48.744;9.176;2024-01-30T02:40:52;98133.19;;;0.78;78.37
80405;BME280;69733;48.744;9.176;2024-01-30T02:43:18;98127.38;;;0.75;78.15
80405;BME280;69733;48.744;9.176;2024-01-30T02:45:43;98139.81;;;0.73;78.21
80405;BME280;69733;48.744;9.176;2024-01-30T02:48:08;98126.97;;;0.70;78.70
80405;BME280;69733;48.744;9.176;2024-01-30T02:50:33;98128.09;;;0.67;78.62
80405;BME280;69733;48.744;9.176;2024-01-30T02:52:59;98131.78;;;0.65;78.32
80405;BME280;69733;48.744;9.176;2024-01-30T02:55:24;98132.06;;;0.62;78.82
80405;BME280;69733;48.744;9.176;2024-01-30T02:57:49;98124.47;;;0.59;78.40
80405;BME280;69733;48.744;9.176;2024-01-30T03:00:15;98135.06;;;0.57;78.53
80405;BME280;69733;48.744;9.176;2024-01-30T03:02:40;98130.09;;;0.54;78.71
80405;BME280;69733;48.744;9.176;2024-01-30T03:05:06;98129.25;;;0.54;78.71
80405;BME280;69733;48.744;9.176;2024-01-30T03:07:33;98129.53;;;0.50;78.65
80405;BME280;69733;48.744;9.176;2024-01-30T03:09:58;98126.22;;;0.48;78.80
80405;BME280;69733;48.744;9.176;2024-01-30T03:12:23;98117.66;;;0.46;78.82
80405;BME280;69733;48.744;9.176;2024-01-30T03:14:49;98114.38;;;0.44;78.72
80405;BME280;69733;48.744;9.176;2024-01-30T03:17:14;98124.16;;;0.42;78.92
80405;BME280;69733;48.744;9.176;2024-01-30T03:19:40;98125.22;;;0.40;78.90
80405;BME280;69733;48.744;9.176;2024-01-30T03:22:05;98121.09;;;0.37;78.96
80405;BME280;69733;48.744;9.176;2024-01-30T03:24:31;98124.66;;;0.36;78.99
80405;BME280;69733;48.744;9.176;2024-01-30T03:26:56;98132.66;;;0.35;79.17
80405;BME280;69733;48.744;9.176;2024-01-30T03:29:21;98127.69;;;0.32;79.05
80405;BME280;69733;48.744;9.176;2024-01-30T03:31:47;98128.66;;;0.31;79.08
80405;BME280;69733;48.744;9.176;2024-01-30T03:34:12;98127.94;;;0.29;79.19
80405;BME280;69733;48.744;9.176;2024-01-30T03:36:37;98130.69;;;0.27;79.37
80405;BME280;69733;48.744;9.176;2024-01-30T03:39:03;98121.31;;;0.25;79.06
80405;BME280;69733;48.744;9.176;2024-01-30T03:41:28;98124.06;;;0.23;79.14
80405;BME280;69733;48.744;9.176;2024-01-30T03:43:53;98133.69;;;0.23;79.49
80405;BME280;69733;48.744;9.176;2024-01-30T03:46:18;98133.00;;;0.21;79.16
80405;BME280;69733;48.744;9.176;2024-01-30T03:48:45;98134.91;;;0.19;79.03
80405;BME280;69733;48.744;9.176;2024-01-30T03:51:10;98132.44;;;0.17;79.35
80405;BME280;69733;48.744;9.176;2024-01-30T03:53:40;98133.50;;;0.15;79.45
80405;BME280;69733;48.744;9.176;2024-01-30T03:56:06;98138.06;;;0.13;79.61
80405;BME280;69733;48.744;9.176;2024-01-30T03:58:32;98133.94;;;0.10;79.04
80405;BME280;69733;48.744;9.176;2024-01-30T04:00:57;98132.25;;;0.09;79.37
80405;BME280;69733;48.744;9.176;2024-01-30T04:03:22;98132.25;;;0.09;79.41
80405;BME280;69733;48.744;9.176;2024-01-30T04:05:47;98132.53;;;0.06;79.02
80405;BME280;69733;48.744;9.176;2024-01-30T04:08:13;98130.84;;;0.05;79.49
80405;BME280;69733;48.744;9.176;2024-01-30T04:10:38;98132.63;;;0.05;79.37
80405;BME280;69733;48.744;9.176;2024-01-30T04:13:03;98125.78;;;0.04;79.55
80405;BME280;69733;48.744;9.176;2024-01-30T04:15:29;98128.50;;;0.02;79.31
80405;BME280;69733;48.744;9.176;2024-01-30T04:17:57;98133.72;;;0.02;79.54
80405;BME280;69733;48.744;9.176;2024-01-30T04:20:22;98138.28;;;0.00;79.66
80405;BME280;69733;48.744;9.176;2024-01-30T04:22:48;98134.94;;;-0.02;79.29
80405;BME280;69733;48.744;9.176;2024-01-30T04:25:13;98133.28;;;-0.03;79.72
80405;BME280;69733;48.744;9.176;2024-01-30T04:27:39;98132.59;;;-0.05;79.88
80405;BME280;69733;48.744;9.176;2024-01-30T04:30:05;98124.88;;;-0.07;79.69
80405;BME280;69733;48.744;9.176;2024-01-30T04:32:31;98128.47;;;-0.08;79.73
80405;BME280;69733;48.744;9.176;2024-01-30T04:34:56;98126.78;;;-0.09;79.71
80405;BME280;69733;48.744;9.176;2024-01-30T04:37:21;98125.13;;;-0.10;79.57
80405;BME280;69733;48.744;9.176;2024-01-30T04:39:47;98125.38;;;-0.13;79.65
80405;BME280;69733;48.744;9.176;2024-01-30T04:42:12;98117.53;;;-0.13;79.73
80405;BME280;69733;48.744;9.176;2024-01-30T04:44:37;98121.09;;;-0.14;79.76
80405;BME280;69733;48.744;9.176;2024-01-30T04:47:03;98122.09;;;-0.15;79.73
80405;BME280;69733;48.744;9.176;2024-01-30T04:49:30;98125.66;;;-0.16;79.68
80405;BME280;69733;48.744;9.176;2024-01-30T04:51:55;98130.16;;;-0.18;79.77
80405;BME280;69733;48.744;9.176;2024-01-30T04:54:21;98131.25;;;-0.20;79.71
80405;BME280;69733;48.744;9.176;2024-01-30T04:56:46;98133.03;;;-0.21;79.90
80405;BME280;69733;48.744;9.176;2024-01-30T04:59:12;98133.88;;;-0.20;79.75
80405;BME280;69733;48.744;9.176;2024-01-30T05:01:37;98127.97;;;-0.22;79.84
80405;BME280;69733;48.744;9.176;2024-01-30T05:04:02;98133.31;;;-0.24;80.05
80405;BME280;69733;48.744;9.176;2024-01-30T05:06:28;98132.47;;;-0.24;79.77
80405;BME280;69733;48.744;9.176;2024-01-30T05:08:54;98142.94;;;-0.24;79.88
80405;BME280;69733;48.744;9.176;2024-01-30T05:11:19;98135.22;;;-0.26;80.01
80405;BME280;69733;48.744;9.176;2024-01-30T05:13:45;98140.72;;;-0.29;79.99
80405;BME280;69733;48.744;9.176;2024-01-30T05:16:10;98130.38;;;-0.30;79.90
80405;BME280;69733;48.744;9.176;2024-01-30T05:18:35;98136.56;;;-0.31;80.32
80405;BME280;69733;48.744;9.176;2024-01-30T05:21:02;98142.75;;;-0.32;80.05
80405;BME280;69733;48.744;9.176;2024-01-30T05:23:27;98135.16;;;-0.35;80.24
80405;BME280;69733;48.744;9.176;2024-01-30T05:25:53;98135.28;;;-0.37;80.32
80405;BME280;69733;48.744;9.176;2024-01-30T05:28:18;98137.06;;;-0.37;80.24
80405;BME280;69733;48.744;9.176;2024-01-30T05:30:43;98139.81;;;-0.39;80.38
80405;BME280;69733;48.744;9.176;2024-01-30T05:33:09;98138.16;;;-0.40;80.84
80405;BME280;69733;48.744;9.176;2024-01-30T05:35:34;98142.56;;;-0.40;80.27
80405;BME280;69733;48.744;9.176;2024-01-30T05:38:00;98146.13;;;-0.41;80.32
80405;BME280;69733;48.744;9.176;2024-01-30T05:40:25;98141.84;;;-0.42;80.63
80405;BME280;69733;48.744;9.176;2024-01-30T05:42:50;98150.50;;;-0.42;80.42
80405;BME280;69733;48.744;9.176;2024-01-30T05:45:16;98148.72;;;-0.41;80.49
80405;BME280;69733;48.744;9.176;2024-01-30T05:47:41;98151.34;;;-0.41;80.19
80405;BME280;69733;48.744;9.176;2024-01-30T05:50:07;98153.00;;;-0.40;80.11
80405;BME280;69733;48.744;9.176;2024-01-30T05:52:32;98157.97;;;-0.37;80.06
80405;BME280;69733;48.744;9.176;2024-01-30T05:54:57;98150.16;;;-0.37;80.08
80405;BME280;69733;48.744;9.176;2024-01-30T05:57:23;98151.81;;;-0.36;80.06
80405;BME280;69733;48.744;9.176;2024-01-30T05:59:48;98155.25;;;-0.36;80.03
80405;BME280;69733;48.744;9.176;2024-01-30T06:02:13;98155.13;;;-0.34;80.13
80405;BME280;69733;48.744;9.176;2024-01-30T06:04:39;98156.91;;;-0.35;79.92
80405;BME280;69733;48.744;9.176;2024-01-30T06:07:05;98153.44;;;-0.35;80.17
80405;BME280;69733;48.744;9.176;2024-01-30T06:09:31;98156.06;;;-0.35;80.31
80405;BME280;69733;48.744;9.176;2024-01-30T06:11:57;98153.44;;;-0.35;80.17
80405;BME280;69733;48.744;9.176;2024-01-30T06:14:23;98154.44;;;-0.36;80.39
80405;BME280;69733;48.744;9.176;2024-01-30T06:16:48;98156.31;;;-0.38;80.46
80405;BME280;69733;48.744;9.176;2024-01-30T06:19:14;98152.88;;;-0.39;80.42
80405;BME280;69733;48.744;9.176;2024-01-30T06:21:39;98154.69;;;-0.39;80.28
80405;BME280;69733;48.744;9.176;2024-01-30T06:24:04;98157.41;;;-0.41;80.35
80405;BME280;69733;48.744;9.176;2024-01-30T06:26:30;98153.84;;;-0.40;80.30
80405;BME280;69733;48.744;9.176;2024-01-30T06:28:55;98155.75;;;-0.42;80.34
80405;BME280;69733;48.744;9.176;2024-01-30T06:31:21;98159.34;;;-0.43;80.32
80405;BME280;69733;48.744;9.176;2024-01-30T06:33:49;98151.50;;;-0.43;80.46
80405;BME280;69733;48.744;9.176;2024-01-30T06:36:15;98153.28;;;-0.43;80.32
80405;BME280;69733;48.744;9.176;2024-01-30T06:38:41;98160.13;;;-0.42;80.54
80405;BME280;69733;48.744;9.176;2024-01-30T06:41:06;98162.75;;;-0.42;80.45
80405;BME280;69733;48.744;9.176;2024-01-30T06:43:31;98159.19;;;-0.41;80.51
80405;BME280;69733;48.744;9.176;2024-01-30T06:45:57;98162.63;;;-0.41;80.42
80405;BME280;69733;48.744;9.176;2024-01-30T06:48:22;98154.78;;;-0.41;80.41
80405;BME280;69733;48.744;9.176;2024-01-30T06:50:47;98159.91;;;-0.39;80.44
80405;BME280;69733;48.744;9.176;2024-01-30T06:53:14;98159.91;;;-0.39;80.43
80405;BME280;69733;48.744;9.176;2024-01-30T06:55:39;98158.94;;;-0.38;80.41
80405;BME280;69733;48.744;9.176;2024-01-30T06:58:05;98158.81;;;-0.37;80.41
80405;BME280;69733;48.744;9.176;2024-01-30T07:00:30;98159.50;;;-0.35;80.45
80405;BME280;69733;48.744;9.176;2024-01-30T07:02:56;98160.34;;;-0.34;80.52
80405;BME280;69733;48.744;9.176;2024-01-30T07:05:21;98164.47;;;-0.32;80.37
80405;BME280;69733;48.744;9.176;2024-01-30T07:07:47;98159.97;;;-0.30;80.17
80405;BME280;69733;48.744;9.176;2024-01-30T07:10:12;98171.00;;;-0.26;80.27
80405;BME280;69733;48.744;9.176;2024-01-30T07:12:38;98167.19;;;-0.22;80.38
80405;BME280;69733;48.744;9.176;2024-01-30T07:15:03;98165.13;;;-0.19;80.49
80405;BME280;69733;48.744;9.176;2024-01-30T07:17:29;98169.97;;;-0.14;79.95
80405;BME280;69733;48.744;9.176;2024-01-30T07:19:54;98170.44;;;-0.09;79.86
80405;BME280;69733;48.744;9.176;2024-01-30T07:22:20;98179.53;;;-0.04;79.92
80405;BME280;69733;48.744;9.176;2024-01-30T07:24:45;98171.19;;;0.03;79.83
80405;BME280;69733;48.744;9.176;2024-01-30T07:27:13;98179.34;;;0.09;79.55
80405;BME280;69733;48.744;9.176;2024-01-30T07:29:38;98175.25;;;0.16;79.43
80405;BME280;69733;48.744;9.176;2024-01-30T07:32:04;98166.75;;;0.24;79.63
80405;BME280;69733;48.744;9.176;2024-01-30T07:34:29;98173.00;;;0.32;79.19
80405;BME280;69733;48.744;9.176;2024-01-30T07:36:55;98174.00;;;0.41;79.44
80405;BME280;69733;48.744;9.176;2024-01-30T07:39:20;98171.16;;;0.54;79.15
80405;BME280;69733;48.744;9.176;2024-01-30T07:41:45;98169.00;;;0.68;78.52
80405;BME280;69733;48.744;9.176;2024-01-30T07:44:11;98173.88;;;0.82;78.57
80405;BME280;69733;48.744;9.176;2024-01-30T07:46:36;98169.38;;;0.94;78.32
80405;BME280;69733;48.744;9.176;2024-01-30T07:49:01;98173.53;;;1.06;78.14
80405;BME280;69733;48.744;9.176;2024-01-30T07:51:27;98177.41;;;1.21;77.96
80405;BME280;69733;48.744;9.176;2024-01-30T07:53:54;98181.28;;;1.27;77.87
80405;BME280;69733;48.744;9.176;2024-01-30T07:56:20;98182.81;;;1.29;78.17
80405;BME280;69733;48.744;9.176;2024-01-30T07:58:45;98176.16;;;1.35;78.26
80405;BME280;69733;48.744;9.176;2024-01-30T08:01:10;98182.53;;;1.42;78.23
80405;BME280;69733;48.744;9.176;2024-01-30T08:03:36;98183.66;;;1.59;77.84
80405;BME280;69733;48.744;9.176;2024-01-30T08:06:02;98182.13;;;1.75;77.49
80405;BME280;69733;48.744;9.176;2024-01-30T08:08:28;98181.84;;;1.97;77.01
80405;BME280;69733;48.744;9.176;2024-01-30T08:10:53;98177.91;;;2.21;76.75
80405;BME280;69733;48.744;9.176;2024-01-30T08:13:19;98178.25;;;2.45;76.26
80405;BME280;69733;48.744;9.176;2024-01-30T08:15:44;98175.81;;;2.71;76.19
80405;BME280;69733;48.744;9.176;2024-01-30T08:18:09;98168.44;;;3.01;75.57
80405;BME280;69733;48.744;9.176;2024-01-30T08:20:35;98171.41;;;3.34;74.68
80405;BME280;69733;48.744;9.176;2024-01-30T08:23:00;98169.94;;;3.67;74.41
80405;BME280;69733;48.744;9.176;2024-01-30T08:25:26;98171.25;;;4.06;73.97
80405;BME280;69733;48.744;9.176;2024-01-30T08:27:51;98172.31;;;4.47;73.25
80405;BME280;69733;48.744;9.176;2024-01-30T08:30:16;98158.88;;;4.92;72.56
80405;BME280;69733;48.744;9.176;2024-01-30T08:32:42;98160.97;;;5.30;72.39
80405;BME280;69733;48.744;9.176;2024-01-30T08:35:07;98159.72;;;5.67;71.90
80405;BME280;69733;48.744;9.176;2024-01-30T08:37:34;98156.75;;;6.10;71.36
80405;BME280;69733;48.744;9.176;2024-01-30T08:39:59;98160.97;;;6.52;70.51
80405;BME280;69733;48.744;9.176;2024-01-30T08:42:25;98157.84;;;6.95;70.24
80405;BME280;69733;48.744;9.176;2024-01-30T08:44:50;98152.75;;;7.24;70.03
80405;BME280;69733;48.744;9.176;2024-01-30T08:47:17;98152.25;;;7.51;70.03
80405;BME280;69733;48.744;9.176;2024-01-30T08:49:43;98151.94;;;7.69;70.00
80405;BME280;69733;48.744;9.176;2024-01-30T08:52:10;98156.94;;;7.87;70.30
80405;BME280;69733;48.744;9.176;2024-01-30T08:54:35;98152.13;;;7.90;71.05
80405;BME280;69733;48.744;9.176;2024-01-30T08:57:00;98152.84;;;7.84;71.71
80405;BME280;69733;48.744;9.176;2024-01-30T08:59:26;98158.44;;;7.67;72.43
80405;BME280;69733;48.744;9.176;2024-01-30T09:01:51;98158.19;;;7.54;73.25
80405;BME280;69733;48.744;9.176;2024-01-30T09:04:19;98159.81;;;7.55;73.34
80405;BME280;69733;48.744;9.176;2024-01-30T09:06:45;98170.78;;;7.51;74.32
80405;BME280;69733;48.744;9.176;2024-01-30T09:09:10;98164.50;;;7.53;74.21
80405;BME280;69733;48.744;9.176;2024-01-30T09:11:35;98169.63;;;7.54;74.43
80405;BME280;69733;48.744;9.176;2024-01-30T09:14:01;98166.63;;;7.57;74.44
80405;BME280;69733;48.744;9.176;2024-01-30T09:16:26;98174.84;;;7.62;74.86
80405;BME280;69733;48.744;9.176;2024-01-30T09:18:52;98181.56;;;7.73;74.91
80405;BME280;69733;48.744;9.176;2024-01-30T09:21:17;98171.63;;;7.75;74.90
80405;BME280;69733;48.744;9.176;2024-01-30T09:23:42;98180.94;;;7.71;75.51
80405;BME280;69733;48.744;9.176;2024-01-30T09:26:08;98188.09;;;7.62;75.75
80405;BME280;69733;48.744;9.176;2024-01-30T09:28:33;98188.72;;;7.41;76.55
80405;BME280;69733;48.744;9.176;2024-01-30T09:30:59;98187.78;;;7.26;77.32
80405;BME280;69733;48.744;9.176;2024-01-30T09:33:24;98187.78;;;7.26;77.03
80405;BME280;69733;48.744;9.176;2024-01-30T09:35:49;98179.06;;;7.26;77.40
80405;BME280;69733;48.744;9.176;2024-01-30T09:38:14;98182.69;;;7.25;77.97
80405;BME280;69733;48.744;9.176;2024-01-30T09:40:40;98186.66;;;7.29;77.82
80405;BME280;69733;48.744;9.176;2024-01-30T09:43:07;98185.47;;;7.31;77.96
80405;BME280;69733;48.744;9.176;2024-01-30T09:45:33;98184.16;;;7.27;77.98
80405;BME280;69733;48.744;9.176;2024-01-30T09:48:00;98188.47;;;7.28;78.35
80405;BME280;69733;48.744;9.176;2024-01-30T09:50:26;98182.97;;;7.30;78.21
80405;BME280;69733;48.744;9.176;2024-01-30T09:52:53;98186.78;;;7.35;78.32
80405;BME280;69733;48.744;9.176;2024-01-30T09:55:20;98191.38;;;7.41;78.01
80405;BME280;69733;48.744;9.176;2024-01-30T09:57:45;98188.00;;;7.47;78.10
80405;BME280;69733;48.744;9.176;2024-01-30T10:00:12;98185.50;;;7.54;77.76
80405;BME280;69733;48.744;9.176;2024-01-30T10:02:38;98189.91;;;7.62;77.82
80405;BME280;69733;48.744;9.176;2024-01-30T10:05:04;98192.34;;;7.71;77.96
80405;BME280;69733;48.744;9.176;2024-01-30T10:07:30;98190.44;;;7.80;77.62
80405;BME280;69733;48.744;9.176;2024-01-30T10:09:56;98190.25;;;7.89;77.71
80405;BME280;69733;48.744;9.176;2024-01-30T10:12:22;98189.69;;;7.94;77.96
80405;BME280;69733;48.744;9.176;2024-01-30T10:14:48;98192.81;;;7.97;77.68
80405;BME280;69733;48.744;9.176;2024-01-30T10:17:13;98187.44;;;8.06;77.90
80405;BME280;69733;48.744;9.176;2024-01-30T10:19:40;98191.88;;;8.13;77.74
80405;BME280;69733;48.744;9.176;2024-01-30T10:22:05;98185.47;;;8.22;77.57
80405;BME280;69733;48.744;9.176;2024-01-30T10:24:32;98183.63;;;8.31;77.10
80405;BME280;69733;48.744;9.176;2024-01-30T10:26:58;98182.06;;;8.36;77.65
80405;BME280;69733;48.744;9.176;2024-01-30T10:29:24;98176.06;;;8.42;77.70
80405;BME280;69733;48.744;9.176;2024-01-30T10:34:24;98175.06;;;8.58;77.49
80405;BME280;69733;48.744;9.176;2024-01-30T10:36:50;98180.19;;;8.60;77.44
80405;BME280;69733;48.744;9.176;2024-01-30T10:39:17;98177.47;;;8.68;77.57
80405;BME280;69733;48.744;9.176;2024-01-30T10:41:43;98179.84;;;8.77;77.50
80405;BME280;69733;48.744;9.176;2024-01-30T10:44:10;98172.13;;;8.82;77.38
80405;BME280;69733;48.744;9.176;2024-01-30T10:46:38;98172.25;;;8.89;77.32
80405;BME280;69733;48.744;9.176;2024-01-30T10:49:05;98167.84;;;8.96;77.23
80405;BME280;69733;48.744;9.176;2024-01-30T10:51:31;98172.88;;;9.06;77.24
80405;BME280;69733;48.744;9.176;2024-01-30T10:53:57;98165.34;;;9.09;77.07
80405;BME280;69733;48.744;9.176;2024-01-30T10:56:23;98157.63;;;9.14;77.28
80405;BME280;69733;48.744;9.176;2024-01-30T10:58:50;98157.53;;;9.22;77.03
80405;BME280;69733;48.744;9.176;2024-01-30T11:01:20;98158.66;;;9.28;77.16
80405;BME280;69733;48.744;9.176;2024-01-30T11:03:49;98156.44;;;9.31;77.16
80405;BME280;69733;48.744;9.176;2024-01-30T11:06:15;98152.81;;;9.39;76.94
80405;BME280;69733;48.744;9.176;2024-01-30T11:08:43;98160.88;;;9.45;76.98
80405;BME280;69733;48.744;9.176;2024-01-30T11:11:09;98155.81;;;9.50;76.84
80405;BME280;69733;48.744;9.176;2024-01-30T11:13:35;98156.09;;;9.56;76.97
80405;BME280;69733;48.744;9.176;2024-01-30T11:16:04;98152.69;;;9.62;76.66
80405;BME280;69733;48.744;9.176;2024-01-30T11:18:32;98157.88;;;9.70;76.59
80405;BME280;69733;48.744;9.176;2024-01-30T11:20:59;98153.44;;;9.77;76.40
80405;BME280;69733;48.744;9.176;2024-01-30T11:23:26;98155.72;;;9.80;76.55
80405;BME280;69733;48.744;9.176;2024-01-30T11:25:52;98155.34;;;9.83;76.47
80405;BME280;69733;48.744;9.176;2024-01-30T11:28:18;98156.59;;;9.87;76.61
80405;BME280;69733;48.744;9.176;2024-01-30T11:30:45;98149.47;;;9.87;76.49
80405;BME280;69733;48.744;9.176;2024-01-30T11:33:13;98150.13;;;9.96;76.39
80405;BME280;69733;48.744;9.176;2024-01-30T11:35:42;98147.09;;;9.99;76.32
80405;BME280;69733;48.744;9.176;2024-01-30T11:38:10;98142.03;;;10.04;76.34
80405;BME280;69733;48.744;9.176;2024-01-30T11:40:37;98145.31;;;10.06;76.53
80405;BME280;69733;48.744;9.176;2024-01-30T11:43:04;98138.97;;;10.07;76.08
80405;BME280;69733;48.744;9.176;2024-01-30T11:45:31;98138.41;;;10.12;76.15
80405;BME280;69733;48.744;9.176;2024-01-30T11:47:57;98143.63;;;10.20;76.06
80405;BME280;69733;48.744;9.176;2024-01-30T11:50:23;98139.38;;;10.25;75.98
80405;BME280;69733;48.744;9.176;2024-01-30T11:52:50;98145.56;;;10.32;75.58
80405;BME280;69733;48.744;9.176;2024-01-30T11:55:15;98140.63;;;10.29;75.74
80405;BME280;69733;48.744;9.176;2024-01-30T11:57:41;98134.13;;;10.38;75.48
80405;BME280;69733;48.744;9.176;2024-01-30T12:00:14;98136.03;;;10.44;75.30
80405;BME280;69733;48.744;9.176;2024-01-30T12:02:40;98138.94;;;10.49;75.33
80405;BME280;69733;48.744;9.176;2024-01-30T12:05:06;98126.25;;;10.52;75.23
80405;BME280;69733;48.744;9.176;2024-01-30T12:07:33;98126.88;;;10.54;75.11
80405;BME280;69733;48.744;9.176;2024-01-30T12:09:58;98117.88;;;10.55;75.02
80405;BME280;69733;48.744;9.176;2024-01-30T12:12:25;98121.16;;;10.57;75.03
80405;BME280;69733;48.744;9.176;2024-01-30T12:14:51;98116.88;;;10.56;74.96
80405;BME280;69733;48.744;9.176;2024-01-30T12:17:26;98112.56;;;10.55;74.57
80405;BME280;69733;48.744;9.176;2024-01-30T12:20:02;98110.91;;;10.54;75.16
80405;BME280;69733;48.744;9.176;2024-01-30T12:22:28;98113.81;;;10.59;74.56
80405;BME280;69733;48.744;9.176;2024-01-30T12:24:53;98106.22;;;10.56;74.50
80405;BME280;69733;48.744;9.176;2024-01-30T12:27:18;98101.28;;;10.53;74.67
80405;BME280;69733;48.744;9.176;2024-01-30T12:29:44;98109.47;;;10.51;74.15
80405;BME280;69733;48.744;9.176;2024-01-30T12:32:15;98100.25;;;10.54;74.34
80405;BME280;69733;48.744;9.176;2024-01-30T12:34:41;98100.50;;;10.59;74.22
80405;BME280;69733;48.744;9.176;2024-01-30T12:37:07;98092.97;;;10.62;73.91
80405;BME280;69733;48.744;9.176;2024-01-30T12:39:34;98090.91;;;10.64;73.64
80405;BME280;69733;48.744;9.176;2024-01-30T12:42:00;98095.84;;;10.67;73.40
80405;BME280;69733;48.744;9.176;2024-01-30T12:44:26;98093.19;;;10.74;73.27
80405;BME280;69733;48.744;9.176;2024-01-30T12:46:51;98099.59;;;10.79;72.92
80405;BME280;69733;48.744;9.176;2024-01-30T12:49:16;98091.03;;;10.84;72.72
80405;BME280;69733;48.744;9.176;2024-01-30T12:51:42;98091.88;;;10.91;72.41
80405;BME280;69733;48.744;9.176;2024-01-30T12:54:07;98097.81;;;10.93;72.39
80405;BME280;69733;48.744;9.176;2024-01-30T12:56:35;98095.56;;;10.96;71.95
80405;BME280;69733;48.744;9.176;2024-01-30T12:59:00;98099.47;;;10.94;72.13
80405;BME280;69733;48.744;9.176;2024-01-30T13:01:26;98100.50;;;10.99;71.83